Search for airport 
image banner adimage banner adimage banner ad
image banner ad

CEF8 - Hay River

Located in , Canada

ICAO - CEF8, IATA -

Data provided by Airmate  

General information

Coordinates: N60°51'7" W115°43'50"
Elevation is 514 feet MSL.
Magnetic variation is 18.0861° East
View others Airports in Northwest Territories

Operational data

Special qualification required
Current time UTC:
Current local time:
Weather at : CYHY - Merlyn Carter Airport ( 3 km )
METAR: CYHY 221500Z 13010KT 15SM FEW150 SCT240 02/M03 A2974 RMK AC1CI3 SLP082
TAF: TAF CYHY 221138Z 2212/2224 13010KT P6SM SKC RMK NXT FCST BY 221800Z
View NOTAMs / SUP AIP / TFR affecting this airport [VIEW]
Communications frequencies: [VIEW]

Runways:

RWY identifierQFULength (ft)Width (ft)SurfaceLDA (ft)
W00WATER

Airport contact information

Address: Canada

Satellite view of CEF8